createdAt,value
2018-12-27T00:01:37.903Z,100.00
2018-12-27T00:04:06.325Z,100.00
2018-12-27T00:06:34.736Z,100.00
2018-12-27T00:09:04.641Z,100.00
2018-12-27T00:11:33.099Z,100.00
2018-12-27T00:14:01.666Z,100.00
2018-12-27T00:16:30.234Z,100.00
2018-12-27T00:19:00.362Z,100.00
2018-12-27T00:21:28.829Z,100.00
2018-12-27T00:23:57.307Z,100.00
2018-12-27T00:26:25.755Z,100.00
2018-12-27T00:28:54.160Z,100.00
2018-12-27T00:31:22.792Z,100.00
2018-12-27T00:33:51.376Z,100.00
2018-12-27T00:36:19.919Z,100.00
2018-12-27T00:38:48.484Z,100.00
2018-12-27T00:41:17.116Z,100.00
2018-12-27T00:43:45.655Z,100.00
2018-12-27T00:46:14.241Z,100.00
2018-12-27T00:48:45.970Z,100.00
2018-12-27T00:51:14.518Z,100.00
2018-12-27T00:53:43.090Z,100.00
2018-12-27T00:56:11.678Z,100.00
2018-12-27T00:58:40.263Z,100.00
2018-12-27T01:01:09.112Z,100.00
2018-12-27T01:03:37.685Z,100.00
2018-12-27T01:06:06.275Z,100.00
2018-12-27T01:08:34.806Z,100.00
2018-12-27T01:11:03.360Z,100.00
2018-12-27T01:13:31.945Z,100.00
2018-12-27T01:16:02.313Z,100.00
2018-12-27T01:18:30.805Z,100.00
2018-12-27T01:20:59.392Z,100.00
2018-12-27T01:23:27.955Z,100.00
2018-12-27T01:25:56.529Z,100.00
2018-12-27T01:28:25.062Z,100.00
2018-12-27T01:30:53.660Z,100.00
2018-12-27T01:33:22.231Z,100.00
2018-12-27T01:35:50.838Z,100.00
2018-12-27T01:38:19.520Z,100.00
2018-12-27T01:40:48.080Z,100.00
2018-12-27T01:43:16.666Z,100.00
2018-12-27T01:45:45.256Z,100.00
2018-12-27T01:48:13.888Z,100.00
2018-12-27T01:50:42.472Z,100.00
2018-12-27T01:53:11.068Z,100.00
2018-12-27T01:55:39.707Z,100.00
2018-12-27T01:58:08.372Z,100.00
2018-12-27T02:00:36.971Z,100.00
2018-12-27T02:03:05.747Z,100.00
2018-12-27T02:05:34.292Z,100.00
2018-12-27T02:08:02.871Z,100.00
2018-12-27T02:10:31.510Z,100.00
2018-12-27T02:13:00.090Z,100.00
2018-12-27T02:15:28.643Z,100.00
2018-12-27T02:17:57.234Z,100.00
2018-12-27T02:20:25.808Z,100.00
2018-12-27T02:22:54.418Z,100.00
2018-12-27T02:25:23.029Z,100.00
2018-12-27T02:27:51.558Z,100.00
2018-12-27T02:30:20.162Z,100.00
2018-12-27T02:32:48.735Z,100.00
2018-12-27T02:35:17.279Z,100.00
2018-12-27T02:37:45.897Z,100.00
2018-12-27T02:40:14.444Z,100.00
2018-12-27T02:42:43.755Z,100.00
2018-12-27T02:45:12.319Z,100.00
2018-12-27T02:47:40.902Z,100.00
2018-12-27T02:50:09.470Z,100.00
2018-12-27T02:52:38.090Z,100.00
2018-12-27T02:55:06.665Z,100.00
2018-12-27T02:57:35.308Z,100.00
2018-12-27T03:00:03.868Z,100.00
2018-12-27T03:02:32.937Z,100.00
2018-12-27T03:05:01.544Z,100.00
2018-12-27T03:07:30.643Z,100.00
2018-12-27T03:09:59.721Z,100.00
2018-12-27T03:12:28.271Z,100.00
2018-12-27T03:14:56.816Z,100.00
2018-12-27T03:17:25.402Z,100.00
2018-12-27T03:19:53.992Z,100.00
2018-12-27T03:22:22.553Z,100.00
2018-12-27T03:24:51.223Z,100.00
2018-12-27T03:27:19.784Z,100.00
2018-12-27T03:29:48.410Z,100.00
2018-12-27T03:32:16.973Z,100.00
2018-12-27T03:34:45.556Z,100.00
2018-12-27T03:37:14.173Z,100.00
2018-12-27T03:39:42.780Z,100.00
2018-12-27T03:42:11.360Z,100.00
2018-12-27T03:44:39.969Z,100.00
2018-12-27T03:47:08.560Z,100.00
2018-12-27T03:49:37.103Z,100.00
2018-12-27T03:52:05.664Z,100.00
2018-12-27T03:54:34.240Z,100.00
2018-12-27T03:57:02.827Z,100.00
2018-12-27T03:59:31.430Z,100.00
2018-12-27T04:02:00.010Z,100.00
2018-12-27T04:04:28.661Z,100.00
2018-12-27T04:06:57.234Z,100.00
2018-12-27T04:09:25.822Z,100.00
2018-12-27T04:11:54.412Z,100.00
2018-12-27T04:14:22.980Z,100.00
2018-12-27T04:16:51.469Z,100.00
2018-12-27T04:19:19.903Z,100.00
2018-12-27T04:21:51.016Z,100.00
2018-12-27T04:24:20.624Z,100.00
2018-12-27T04:26:49.035Z,100.00
2018-12-27T04:29:17.485Z,100.00
2018-12-27T04:31:48.259Z,100.00
2018-12-27T04:34:17.852Z,100.00
2018-12-27T04:36:46.859Z,100.00
2018-12-27T04:39:15.300Z,100.00
2018-12-27T04:41:44.235Z,100.00
2018-12-27T04:44:13.234Z,100.00
2018-12-27T04:46:41.660Z,100.00
2018-12-27T04:49:10.165Z,100.00
2018-12-27T04:51:38.622Z,100.00
2018-12-27T04:54:07.073Z,100.00
2018-12-27T04:56:35.535Z,100.00
2018-12-27T04:59:04.066Z,100.00
2018-12-27T05:01:32.551Z,100.00
2018-12-27T05:04:01.016Z,100.00
2018-12-27T05:06:29.414Z,100.00
2018-12-27T05:08:57.856Z,100.00
2018-12-27T05:11:26.345Z,100.00
2018-12-27T05:13:54.813Z,100.00
2018-12-27T05:16:23.251Z,100.00
2018-12-27T05:18:51.689Z,100.00
2018-12-27T05:21:20.295Z,100.00
2018-12-27T05:23:48.779Z,100.00
2018-12-27T05:26:17.207Z,100.00
2018-12-27T05:28:45.691Z,100.00
2018-12-27T05:31:14.196Z,100.00
2018-12-27T05:33:42.806Z,100.00
2018-12-27T05:36:11.254Z,100.00
2018-12-27T05:38:39.663Z,100.00
2018-12-27T05:41:08.107Z,100.00
2018-12-27T05:43:36.531Z,100.00
2018-12-27T05:46:05.070Z,100.00
2018-12-27T05:48:33.527Z,100.00
2018-12-27T05:51:01.991Z,100.00
2018-12-27T05:53:30.493Z,100.00
2018-12-27T05:55:58.918Z,100.00
2018-12-27T05:58:27.367Z,100.00
2018-12-27T06:00:55.816Z,100.00
2018-12-27T06:03:24.354Z,100.00
2018-12-27T06:05:52.823Z,100.00
2018-12-27T06:08:21.389Z,100.00
2018-12-27T06:10:49.823Z,100.00
2018-12-27T06:13:18.284Z,100.00
2018-12-27T06:15:46.724Z,100.00
2018-12-27T06:18:15.145Z,100.00
2018-12-27T06:20:43.607Z,100.00
2018-12-27T06:23:12.025Z,100.00
2018-12-27T06:25:40.599Z,100.00
2018-12-27T06:28:09.025Z,100.00
2018-12-27T06:30:37.453Z,100.00
2018-12-27T06:33:05.940Z,100.00
2018-12-27T06:35:34.732Z,100.00
2018-12-27T06:38:03.321Z,100.00
2018-12-27T06:40:31.782Z,100.00
2018-12-27T06:43:00.209Z,100.00
2018-12-27T06:45:28.715Z,100.00
2018-12-27T06:47:57.753Z,100.00
2018-12-27T06:50:26.693Z,100.00
2018-12-27T06:52:55.158Z,100.00
2018-12-27T06:55:23.598Z,100.00
2018-12-27T06:57:52.064Z,100.00
2018-12-27T07:00:20.589Z,100.00
2018-12-27T07:02:49.026Z,100.00
2018-12-27T07:05:17.463Z,100.00
2018-12-27T07:07:45.891Z,100.00
2018-12-27T07:10:14.348Z,100.00
2018-12-27T07:12:42.783Z,100.00
2018-12-27T07:15:11.364Z,100.00
2018-12-27T07:17:40.580Z,100.00
2018-12-27T07:20:11.336Z,100.00
2018-12-27T07:22:39.938Z,100.00
2018-12-27T07:25:08.448Z,100.00
2018-12-27T07:27:36.939Z,100.00
2018-12-27T07:30:07.552Z,100.00
2018-12-27T07:32:35.994Z,100.00
2018-12-27T07:35:04.905Z,100.00
2018-12-27T07:37:33.369Z,100.00
2018-12-27T07:40:01.946Z,100.00
2018-12-27T07:42:30.370Z,100.00
2018-12-27T07:44:58.860Z,100.00
2018-12-27T07:47:27.283Z,100.00
2018-12-27T07:49:55.849Z,100.00
2018-12-27T07:52:24.304Z,100.00
2018-12-27T07:54:56.479Z,100.00
2018-12-27T07:57:24.902Z,100.00
2018-12-27T07:59:53.353Z,100.00
2018-12-27T08:02:21.762Z,100.00
2018-12-27T08:04:50.348Z,100.00
2018-12-27T08:07:18.851Z,100.00
2018-12-27T08:09:47.696Z,100.00
2018-12-27T08:12:17.298Z,100.00
2018-12-27T08:14:45.715Z,100.00
2018-12-27T08:17:14.143Z,100.00
2018-12-27T08:19:45.429Z,100.00
2018-12-27T08:22:13.848Z,100.00
2018-12-27T08:24:42.389Z,100.00
2018-12-27T08:27:10.986Z,100.00
2018-12-27T08:29:39.365Z,100.00
2018-12-27T08:32:07.834Z,100.00
2018-12-27T08:34:40.117Z,100.00
2018-12-27T08:37:08.553Z,100.00
2018-12-27T08:39:36.995Z,100.00
2018-12-27T08:42:05.681Z,100.00
2018-12-27T08:44:34.151Z,100.00
2018-12-27T08:47:02.657Z,99.42
2018-12-27T08:49:31.098Z,99.47
2018-12-27T08:51:59.937Z,99.42
2018-12-27T08:54:28.331Z,99.26
2018-12-27T08:56:56.776Z,98.82
2018-12-27T08:59:25.240Z,99.44
2018-12-27T09:01:53.651Z,98.30
2018-12-27T09:04:22.116Z,99.16
2018-12-27T09:06:50.541Z,98.56
2018-12-27T09:09:19.079Z,98.27
2018-12-27T09:11:47.537Z,97.33
2018-12-27T09:14:15.962Z,96.57
2018-12-27T09:16:44.394Z,96.58
2018-12-27T09:19:13.103Z,96.29
2018-12-27T09:21:41.664Z,95.04
2018-12-27T09:24:10.193Z,94.54
2018-12-27T09:26:38.714Z,94.57
2018-12-27T09:29:07.137Z,94.09
2018-12-27T09:31:35.694Z,94.58
2018-12-27T09:34:04.274Z,93.92
2018-12-27T09:36:32.692Z,95.12
2018-12-27T09:39:01.166Z,95.10
2018-12-27T09:41:29.952Z,95.45
2018-12-27T09:43:58.869Z,96.10
2018-12-27T09:46:27.293Z,96.81
2018-12-27T09:48:55.860Z,96.47
2018-12-27T09:51:24.303Z,97.35
2018-12-27T09:53:52.732Z,97.45
2018-12-27T09:56:21.590Z,97.29
2018-12-27T09:58:50.027Z,97.63
2018-12-27T10:01:18.669Z,97.89
2018-12-27T10:03:47.135Z,97.44
2018-12-27T10:06:15.585Z,98.34
2018-12-27T10:08:44.115Z,97.85
2018-12-27T10:11:12.576Z,96.84
2018-12-27T10:13:41.036Z,97.32
2018-12-27T10:16:09.544Z,97.41
2018-12-27T10:18:37.981Z,96.51
2018-12-27T10:21:06.506Z,99.07
2018-12-27T10:23:35.004Z,95.03
2018-12-27T10:26:03.503Z,95.25
2018-12-27T10:28:31.956Z,94.38
2018-12-27T10:31:00.393Z,95.13
2018-12-27T10:33:28.827Z,94.54
2018-12-27T10:35:57.256Z,93.00
2018-12-27T10:38:25.725Z,93.57
2018-12-27T10:40:54.139Z,93.78
2018-12-27T10:43:22.600Z,93.78
2018-12-27T10:45:51.093Z,92.09
2018-12-27T10:48:19.504Z,92.72
2018-12-27T10:50:47.960Z,92.70
2018-12-27T10:53:16.486Z,91.81
2018-12-27T10:55:44.921Z,91.49
2018-12-27T10:58:13.354Z,90.37
2018-12-27T11:00:41.788Z,90.24
2018-12-27T11:03:10.198Z,89.19
2018-12-27T11:05:38.644Z,88.90
2018-12-27T11:08:07.150Z,86.50
2018-12-27T11:10:35.562Z,87.86
2018-12-27T11:13:04.028Z,86.82
2018-12-27T11:15:32.433Z,86.34
2018-12-27T11:18:00.841Z,86.79
2018-12-27T11:20:29.299Z,86.34
2018-12-27T11:22:57.721Z,85.94
2018-12-27T11:25:26.139Z,86.78
2018-12-27T11:27:54.660Z,86.32
2018-12-27T11:30:23.163Z,85.17
2018-12-27T11:32:51.592Z,85.88
2018-12-27T11:35:20.027Z,86.75
2018-12-27T11:37:48.462Z,87.64
2018-12-27T11:40:16.909Z,87.50
2018-12-27T11:42:45.323Z,87.47
2018-12-27T11:45:13.847Z,87.93
2018-12-27T11:47:42.353Z,87.26
2018-12-27T11:50:12.392Z,86.90
2018-12-27T11:52:42.879Z,87.37
2018-12-27T11:55:11.375Z,88.73
2018-12-27T11:57:39.790Z,87.63
2018-12-27T12:00:10.749Z,87.52
2018-12-27T12:02:39.162Z,90.35
2018-12-27T12:05:08.158Z,90.35
2018-12-27T12:07:36.643Z,88.64
2018-12-27T12:10:07.353Z,89.82
2018-12-27T12:12:39.327Z,90.24
2018-12-27T12:15:08.756Z,89.01
2018-12-27T12:17:37.235Z,88.98
2018-12-27T12:20:07.608Z,88.57
2018-12-27T12:22:36.035Z,88.15
2018-12-27T12:25:05.031Z,87.32
2018-12-27T12:27:33.510Z,88.31
2018-12-27T12:30:02.549Z,87.48
2018-12-27T12:32:31.741Z,87.24
2018-12-27T12:35:00.186Z,86.30
2018-12-27T12:37:28.966Z,87.17
2018-12-27T12:39:57.432Z,87.12
2018-12-27T12:42:32.822Z,85.40
2018-12-27T12:44:56.059Z,86.56
2018-12-27T12:47:24.493Z,87.63
2018-12-27T12:49:53.002Z,85.33
2018-12-27T12:52:21.422Z,87.46
2018-12-27T12:54:49.933Z,87.10
2018-12-27T12:57:18.357Z,87.88
2018-12-27T12:59:46.941Z,87.39
2018-12-27T13:02:15.408Z,87.90
2018-12-27T13:04:43.828Z,88.18
2018-12-27T13:07:12.250Z,86.76
2018-12-27T13:09:40.682Z,87.99
2018-12-27T13:12:09.624Z,88.83
2018-12-27T13:14:38.205Z,87.85
2018-12-27T13:17:06.629Z,87.54
2018-12-27T13:19:35.214Z,87.36
2018-12-27T13:22:04.312Z,85.19
2018-12-27T13:24:32.976Z,82.99
2018-12-27T13:27:01.396Z,83.81
2018-12-27T13:29:29.850Z,81.15
2018-12-27T13:31:58.290Z,80.62
2018-12-27T13:34:30.295Z,81.99
2018-12-27T13:36:59.331Z,81.14
2018-12-27T13:39:28.020Z,81.90
2018-12-27T13:41:57.997Z,80.62
2018-12-27T13:44:26.415Z,81.25
2018-12-27T13:46:54.858Z,81.39
2018-12-27T13:49:23.324Z,80.98
2018-12-27T13:51:53.059Z,81.45
2018-12-27T13:54:22.399Z,82.83
2018-12-27T13:56:50.839Z,81.83
2018-12-27T13:59:19.355Z,82.17
2018-12-27T14:01:55.581Z,81.63
2018-12-27T14:04:23.998Z,80.64
2018-12-27T14:06:52.426Z,78.34
2018-12-27T14:09:20.861Z,79.09
2018-12-27T14:11:49.306Z,76.00
2018-12-27T14:14:17.743Z,74.95
2018-12-27T14:16:46.152Z,75.46
2018-12-27T14:19:14.592Z,76.43
2018-12-27T14:21:43.005Z,75.14
2018-12-27T14:24:11.421Z,75.00
2018-12-27T14:26:39.869Z,75.92
2018-12-27T14:29:11.075Z,75.60
2018-12-27T14:31:39.497Z,77.03
2018-12-27T14:34:07.921Z,82.04
2018-12-27T14:36:39.666Z,83.60
2018-12-27T14:39:07.360Z,84.30
2018-12-27T14:41:35.810Z,85.18
2018-12-27T14:44:04.242Z,85.64
2018-12-27T14:46:32.771Z,85.97
2018-12-27T14:49:01.175Z,86.38
2018-12-27T14:51:29.601Z,86.34
2018-12-27T14:53:58.069Z,85.81
2018-12-27T14:56:26.546Z,86.46
2018-12-27T14:58:54.966Z,87.77
2018-12-27T15:01:23.432Z,87.21
2018-12-27T15:03:51.840Z,86.15
2018-12-27T15:06:20.332Z,86.80
2018-12-27T15:08:48.840Z,87.05
2018-12-27T15:11:17.263Z,86.23
2018-12-27T15:13:45.715Z,87.01
2018-12-27T15:16:14.130Z,87.16
2018-12-27T15:18:42.601Z,87.13
2018-12-27T15:21:11.070Z,86.96
2018-12-27T15:23:39.485Z,87.37
2018-12-27T15:26:07.911Z,87.15
2018-12-27T15:28:36.404Z,86.89
2018-12-27T15:31:04.816Z,86.69
2018-12-27T15:33:33.591Z,87.90
2018-12-27T15:36:02.051Z,88.26
2018-12-27T15:38:30.474Z,87.91
2018-12-27T15:40:58.903Z,87.75
2018-12-27T15:43:27.358Z,87.71
2018-12-27T15:45:55.782Z,88.06
2018-12-27T15:48:24.221Z,88.10
2018-12-27T15:50:52.647Z,89.56
2018-12-27T15:53:21.086Z,90.25
2018-12-27T15:55:49.499Z,89.45
2018-12-27T15:58:17.945Z,89.45
2018-12-27T16:00:46.380Z,89.70
2018-12-27T16:03:14.812Z,89.33
2018-12-27T16:05:43.250Z,89.32
2018-12-27T16:08:11.660Z,89.55
2018-12-27T16:10:40.144Z,88.97
2018-12-27T16:13:08.555Z,89.35
2018-12-27T16:15:36.978Z,88.52
2018-12-27T16:18:05.448Z,86.34
2018-12-27T16:20:33.894Z,86.44
2018-12-27T16:23:02.299Z,86.66
2018-12-27T16:25:31.113Z,87.11
2018-12-27T16:27:59.528Z,87.27
2018-12-27T16:30:28.343Z,85.00
2018-12-27T16:32:56.769Z,84.94
2018-12-27T16:35:25.200Z,84.97
2018-12-27T16:37:54.029Z,84.74
2018-12-27T16:40:22.539Z,82.78
2018-12-27T16:42:51.114Z,82.56
2018-12-27T16:45:19.540Z,82.91
2018-12-27T16:47:47.987Z,82.75
2018-12-27T16:50:16.416Z,83.69
2018-12-27T16:52:44.848Z,82.05
2018-12-27T16:55:13.340Z,82.15
2018-12-27T16:57:41.763Z,81.77
2018-12-27T17:00:10.251Z,82.66
2018-12-27T17:02:38.678Z,80.70
2018-12-27T17:05:07.209Z,80.01
2018-12-27T17:07:35.592Z,78.64
2018-12-27T17:10:04.893Z,78.27
2018-12-27T17:12:33.365Z,77.90
2018-12-27T17:15:01.784Z,78.91
2018-12-27T17:17:30.262Z,79.95
2018-12-27T17:19:58.707Z,78.85
2018-12-27T17:22:27.218Z,79.56
2018-12-27T17:24:55.664Z,78.95
2018-12-27T17:27:25.750Z,77.96
2018-12-27T17:29:54.229Z,79.61
2018-12-27T17:32:22.677Z,78.19
2018-12-27T17:34:51.106Z,78.61
2018-12-27T17:37:23.319Z,78.93
2018-12-27T17:39:49.682Z,78.94
2018-12-27T17:42:18.088Z,78.17
2018-12-27T17:44:46.625Z,79.66
2018-12-27T17:47:15.021Z,77.72
2018-12-27T17:49:43.434Z,78.54
2018-12-27T17:52:11.983Z,80.15
2018-12-27T17:54:40.403Z,78.08
2018-12-27T17:57:08.847Z,78.75
2018-12-27T17:59:37.416Z,79.10
2018-12-27T18:02:05.834Z,78.44
2018-12-27T18:04:34.255Z,79.54
2018-12-27T18:07:02.706Z,78.80
2018-12-27T18:09:31.118Z,79.19
2018-12-27T18:11:59.638Z,79.17
2018-12-27T18:14:28.103Z,79.72
2018-12-27T18:16:56.577Z,79.65
2018-12-27T18:19:26.313Z,80.07
2018-12-27T18:21:56.827Z,81.68
2018-12-27T18:24:25.475Z,81.24
2018-12-27T18:26:53.912Z,82.11
2018-12-27T18:29:22.352Z,82.28
2018-12-27T18:31:50.773Z,82.08
2018-12-27T18:34:19.301Z,82.27
2018-12-27T18:36:47.910Z,82.74
2018-12-27T18:39:16.914Z,82.93
2018-12-27T18:41:45.824Z,83.56
2018-12-27T18:44:14.332Z,83.89
2018-12-27T18:46:43.041Z,83.47
2018-12-27T18:49:13.006Z,82.58
2018-12-27T18:51:41.435Z,81.35
2018-12-27T18:54:09.832Z,83.07
2018-12-27T18:56:39.957Z,82.05
2018-12-27T18:59:08.406Z,80.15
2018-12-27T19:01:36.896Z,81.80
2018-12-27T19:04:07.200Z,79.85
2018-12-27T19:06:35.622Z,79.10
2018-12-27T19:09:09.547Z,80.02
2018-12-27T19:12:14.349Z,80.27
2018-12-27T19:14:43.142Z,80.16
2018-12-27T19:17:17.601Z,79.48
2018-12-27T19:19:46.089Z,80.70
2018-12-27T19:22:15.723Z,80.33
2018-12-27T19:24:44.153Z,80.18
2018-12-27T19:27:12.574Z,79.96
2018-12-27T19:29:41.007Z,81.29
2018-12-27T19:32:09.487Z,80.42
2018-12-27T19:34:37.897Z,80.41
2018-12-27T19:37:06.325Z,80.89
2018-12-27T19:39:35.476Z,81.49
2018-12-27T19:42:03.896Z,80.80
2018-12-27T19:44:32.338Z,81.72
2018-12-27T19:47:00.750Z,82.37
2018-12-27T19:49:29.178Z,82.13
2018-12-27T19:51:57.602Z,82.28
2018-12-27T19:54:31.940Z,81.91
2018-12-27T19:56:56.233Z,83.88
2018-12-27T19:59:24.685Z,84.10
2018-12-27T20:01:53.133Z,83.29
2018-12-27T20:04:21.581Z,83.47
2018-12-27T20:06:50.104Z,83.69
2018-12-27T20:09:18.530Z,83.95
2018-12-27T20:11:46.956Z,83.89
2018-12-27T20:14:15.461Z,84.49
2018-12-27T20:16:43.963Z,85.06
2018-12-27T20:19:12.394Z,85.47
2018-12-27T20:21:40.855Z,85.12
2018-12-27T20:24:09.333Z,85.78
2018-12-27T20:26:37.761Z,85.93
2018-12-27T20:29:06.168Z,85.56
2018-12-27T20:31:34.608Z,85.69
2018-12-27T20:34:03.122Z,86.23
2018-12-27T20:36:33.044Z,86.06
2018-12-27T20:39:01.528Z,86.16
2018-12-27T20:41:29.966Z,85.96
2018-12-27T20:43:58.387Z,86.62
2018-12-27T20:46:26.812Z,87.12
2018-12-27T20:48:55.293Z,87.53
2018-12-27T20:51:23.945Z,87.38
2018-12-27T20:53:52.381Z,87.81
2018-12-27T20:56:20.888Z,87.88
2018-12-27T20:58:49.601Z,87.93
2018-12-27T21:01:18.020Z,88.28
2018-12-27T21:03:46.558Z,88.89
2018-12-27T21:06:15.394Z,89.13
2018-12-27T21:08:43.814Z,89.24
2018-12-27T21:11:12.238Z,89.66
2018-12-27T21:13:40.651Z,89.89
2018-12-27T21:16:09.190Z,90.06
2018-12-27T21:18:37.629Z,90.50
2018-12-27T21:21:06.054Z,91.12
2018-12-27T21:23:34.301Z,92.05
2018-12-27T21:26:02.712Z,92.06
2018-12-27T21:28:31.182Z,92.67
2018-12-27T21:30:59.604Z,92.30
2018-12-27T21:33:28.040Z,93.07
2018-12-27T21:35:56.467Z,92.59
2018-12-27T21:38:24.906Z,92.74
2018-12-27T21:40:59.633Z,93.55
2018-12-27T21:43:28.129Z,94.07
2018-12-27T21:45:56.676Z,93.86
2018-12-27T21:48:25.119Z,94.08
2018-12-27T21:50:53.641Z,93.90
2018-12-27T21:53:22.062Z,93.89
2018-12-27T21:55:50.563Z,94.07
2018-12-27T21:58:18.992Z,94.54
2018-12-27T22:00:47.414Z,94.38
2018-12-27T22:03:15.952Z,94.86
2018-12-27T22:05:44.401Z,95.74
2018-12-27T22:08:12.824Z,95.46
2018-12-27T22:10:41.265Z,95.47
2018-12-27T22:13:09.864Z,96.93
2018-12-27T22:15:38.549Z,96.63
2018-12-27T22:18:06.981Z,96.96
2018-12-27T22:20:35.535Z,97.86
2018-12-27T22:23:04.473Z,95.79
2018-12-27T22:25:32.990Z,96.32
2018-12-27T22:28:01.502Z,96.21
2018-12-27T22:30:29.946Z,96.32
2018-12-27T22:32:58.386Z,95.93
2018-12-27T22:35:26.800Z,96.24
2018-12-27T22:37:55.225Z,96.86
2018-12-27T22:40:23.651Z,96.69
2018-12-27T22:42:52.159Z,96.99
2018-12-27T22:45:20.598Z,96.90
2018-12-27T22:47:49.045Z,97.59
2018-12-27T22:50:17.454Z,97.96
2018-12-27T22:52:46.015Z,97.90
2018-12-27T22:55:14.440Z,98.58
2018-12-27T22:57:42.889Z,98.95
2018-12-27T23:00:22.002Z,99.08
2018-12-27T23:02:50.409Z,99.91
2018-12-27T23:05:18.837Z,100.00
2018-12-27T23:07:47.296Z,100.00
2018-12-27T23:10:15.690Z,99.64
2018-12-27T23:12:44.151Z,100.00
2018-12-27T23:15:12.574Z,100.00
2018-12-27T23:17:40.989Z,100.00
2018-12-27T23:20:09.467Z,100.00
2018-12-27T23:22:37.879Z,100.00
2018-12-27T23:25:06.314Z,100.00
2018-12-27T23:27:34.899Z,100.00
2018-12-27T23:30:04.005Z,100.00
2018-12-27T23:32:32.493Z,100.00
2018-12-27T23:35:00.958Z,100.00
2018-12-27T23:37:29.371Z,100.00
2018-12-27T23:39:57.820Z,100.00
2018-12-27T23:42:26.383Z,100.00
2018-12-27T23:44:54.888Z,100.00
2018-12-27T23:47:23.324Z,100.00
2018-12-27T23:49:51.756Z,100.00
2018-12-27T23:52:20.181Z,100.00
2018-12-27T23:54:48.627Z,100.00
2018-12-27T23:57:17.042Z,100.00
2018-12-27T23:59:45.549Z,100.00
